Time;durP1;ratioP1;P1;durP2;ratioP2;P2;SDS_P1;SDS_P2;PMS_P1;PMS_P2;Temp;Humidity;BMP_temperature;BMP_pressure;BME280_temperature;BME280_humidity;BME280_pressure;Samples;Min_cycle;Max_cycle;Signal;HPM_P1;HPM_P2
2022/08/03 00:00:01;;;;;;;6.47;1.02;;;21.20;99.90;;;;;;4832414;29;20034;-38
2022/08/03 00:02:26;;;;;;;1.15;0.65;;;21.30;99.90;;;;;;4841628;29;20582;-34
2022/08/03 00:04:52;;;;;;;5.07;0.80;;;21.30;99.90;;;;;;4837105;29;20033;-38
2022/08/03 00:07:18;;;;;;;6.53;1.45;;;21.20;99.90;;;;;;4842935;29;20627;-36
2022/08/03 00:09:44;;;;;;;1.45;1.00;;;21.20;99.90;;;;;;4844567;29;20043;-37
2022/08/03 00:12:09;;;;;;;2.80;0.95;;;21.20;99.90;;;;;;4835568;29;20033;-36
2022/08/03 00:14:35;;;;;;;4.32;1.15;;;21.20;99.90;;;;;;4842850;29;20034;-37
2022/08/03 00:17:02;;;;;;;6.20;1.70;;;21.20;99.90;;;;;;4845000;29;20033;-37
2022/08/03 00:19:27;;;;;;;1.55;0.80;;;21.10;99.90;;;;;;4840390;29;20037;-38
2022/08/03 00:21:53;;;;;;;4.30;0.88;;;21.20;99.90;;;;;;4840567;29;20029;-36
2022/08/03 00:24:19;;;;;;;5.97;1.15;;;21.20;99.90;;;;;;4835419;29;20038;-37
2022/08/03 00:26:45;;;;;;;3.35;0.95;;;21.10;99.90;;;;;;4840532;29;20116;-36
2022/08/03 00:29:10;;;;;;;6.28;0.90;;;21.10;99.90;;;;;;4836978;29;20037;-33
2022/08/03 00:31:36;;;;;;;11.13;1.70;;;21.10;99.90;;;;;;4841921;29;20030;-37
2022/08/03 00:34:02;;;;;;;6.35;1.40;;;21.10;99.90;;;;;;4837913;29;20044;-37
2022/08/03 00:36:28;;;;;;;2.22;0.90;;;21.10;99.90;;;;;;4847261;29;20140;-36
2022/08/03 00:38:54;;;;;;;2.60;0.90;;;21.10;99.90;;;;;;4845922;29;20033;-34
2022/08/03 00:41:20;;;;;;;2.90;1.23;;;21.10;99.90;;;;;;4843889;29;20503;-36
2022/08/03 00:43:46;;;;;;;2.75;1.60;;;21.10;99.90;;;;;;4845293;29;20064;-37
2022/08/03 00:46:12;;;;;;;2.30;1.08;;;21.00;99.90;;;;;;4849383;29;20550;-39
2022/08/03 00:48:38;;;;;;;6.78;1.60;;;21.00;99.90;;;;;;4846708;29;20097;-35
2022/08/03 00:51:04;;;;;;;2.55;0.82;;;21.00;99.90;;;;;;4820498;29;20037;-35
2022/08/03 00:53:31;;;;;;;4.30;1.63;;;21.00;99.90;;;;;;4836447;29;20558;-38
2022/08/03 00:55:57;;;;;;;4.15;0.90;;;21.00;99.90;;;;;;4832198;29;20127;-40
2022/08/03 00:58:23;;;;;;;5.03;0.98;;;21.00;99.90;;;;;;4859846;29;20037;-41
2022/08/03 01:00:49;;;;;;;10.10;1.10;;;21.00;99.90;;;;;;4829993;29;20057;-42
2022/08/03 01:03:14;;;;;;;3.47;1.08;;;21.00;99.90;;;;;;4841906;29;20072;-37
2022/08/03 01:06:07;;;;;;;7.22;1.42;;;21.00;99.90;;;;;;4839091;29;20517;-36
2022/08/03 01:08:45;;;;;;;2.92;0.88;;;21.00;99.90;;;;;;4819783;29;20038;-38
2022/08/03 01:11:39;;;;;;;6.47;1.02;;;21.00;99.90;;;;;;4839254;29;20484;-38
2022/08/03 01:14:36;;;;;;;3.95;1.50;;;21.00;99.90;;;;;;4832860;29;20567;-41
2022/08/03 01:17:12;;;;;;;3.10;1.42;;;20.90;99.90;;;;;;4842759;29;20057;-37
2022/08/03 01:20:02;;;;;;;3.05;1.63;;;20.90;99.90;;;;;;4842214;29;20034;-38
2022/08/03 01:22:48;;;;;;;3.70;1.20;;;20.90;99.90;;;;;;4839295;29;20139;-47
2022/08/03 01:25:24;;;;;;;5.50;1.63;;;20.90;99.90;;;;;;4834188;29;20109;-38
2022/08/03 01:28:10;;;;;;;3.08;0.93;;;20.90;99.90;;;;;;4836115;29;20094;-37
2022/08/03 01:30:39;;;;;;;4.85;1.33;;;20.90;99.90;;;;;;4845981;29;20537;-41
2022/08/03 01:33:12;;;;;;;3.80;1.20;;;20.90;99.90;;;;;;4834701;29;20053;-37
2022/08/03 01:35:45;;;;;;;2.92;1.38;;;20.90;99.90;;;;;;4839994;29;20073;-39
2022/08/03 01:38:17;;;;;;;5.13;1.33;;;20.90;99.90;;;;;;4845231;29;20033;-36
2022/08/03 01:40:44;;;;;;;5.72;1.30;;;20.90;99.90;;;;;;4832508;29;20657;-32
2022/08/03 01:43:17;;;;;;;5.85;1.20;;;20.90;99.90;;;;;;4853455;29;20518;-38
2022/08/03 01:45:43;;;;;;;5.78;1.30;;;20.90;99.90;;;;;;4843794;29;20608;-47
2022/08/03 01:48:14;;;;;;;3.13;1.60;;;20.90;99.90;;;;;;4834785;29;20137;-36
2022/08/03 01:50:41;;;;;;;3.53;1.10;;;20.90;99.90;;;;;;4819799;29;20400;-34
2022/08/03 01:53:08;;;;;;;2.03;1.20;;;20.90;99.90;;;;;;4830476;29;20026;-40
2022/08/03 01:55:36;;;;;;;;;;;20.80;99.90;;;;;;4833341;29;20494;-43
2022/08/03 01:58:03;;;;;;;6.80;1.92;;;20.80;99.90;;;;;;4836919;29;20396;-32
2022/08/03 02:00:30;;;;;;;6.15;1.52;;;20.80;99.90;;;;;;4817122;29;20018;-34
2022/08/03 02:02:57;;;;;;;8.43;1.75;;;20.70;99.90;;;;;;4820782;29;20521;-34
2022/08/03 02:08:12;;;;;;;8.68;1.55;;;20.70;99.90;;;;;;4837321;29;20300;-36
2022/08/03 02:10:40;;;;;;;7.93;1.70;;;20.70;99.90;;;;;;4832019;29;20113;-34
2022/08/03 02:13:07;;;;;;;11.57;1.63;;;20.70;99.90;;;;;;4831347;29;20033;-35
2022/08/03 02:15:36;;;;;;;15.10;1.60;;;20.70;99.90;;;;;;4836483;29;20411;-34
2022/08/03 02:18:04;;;;;;;8.68;1.40;;;20.70;99.90;;;;;;4835208;29;20061;-39
2022/08/03 02:20:32;;;;;;;8.45;1.67;;;20.60;99.90;;;;;;4850524;29;20025;-45
2022/08/03 02:22:57;;;;;;;3.85;1.00;;;20.60;99.90;;;;;;4833822;29;20507;-46
2022/08/03 02:25:23;;;;;;;7.10;1.40;;;20.60;99.90;;;;;;4839704;29;20029;-34
2022/08/03 02:28:09;;;;;;;7.28;1.80;;;20.50;99.90;;;;;;4847623;29;20036;-33
2022/08/03 02:30:37;;;;;;;7.82;1.55;;;20.60;99.90;;;;;;4839175;29;20038;-36
2022/08/03 02:33:05;;;;;;;11.50;1.60;;;20.50;99.90;;;;;;4839690;29;20068;-30
2022/08/03 02:35:31;;;;;;;;;;;20.50;99.90;;;;;;4832910;29;20029;-32
2022/08/03 02:38:01;;;;;;;15.20;2.50;;;20.50;99.90;;;;;;4834946;29;19924;-34
2022/08/03 02:40:29;;;;;;;8.52;2.03;;;20.50;99.90;;;;;;4835392;29;20497;-38
2022/08/03 02:42:59;;;;;;;4.03;1.00;;;20.50;99.90;;;;;;4829289;29;20473;-39
2022/08/03 02:45:27;;;;;;;3.10;1.48;;;20.50;99.90;;;;;;4834552;29;20037;-35
2022/08/03 02:47:58;;;;;;;2.63;1.13;;;20.50;99.90;;;;;;4836429;29;20078;-38
2022/08/03 02:50:26;;;;;;;7.80;1.52;;;20.40;99.90;;;;;;4837190;29;20291;-33
2022/08/03 02:52:52;;;;;;;;;;;20.40;99.90;;;;;;4838350;29;20142;-41
2022/08/03 02:55:19;;;;;;;5.05;1.83;;;20.40;99.90;;;;;;4829884;29;20031;-37
2022/08/03 02:57:47;;;;;;;7.10;1.45;;;20.40;99.90;;;;;;4831122;29;20050;-37
2022/08/03 03:00:13;;;;;;;9.30;1.83;;;20.40;99.90;;;;;;4830929;29;20562;-33
2022/08/03 03:02:40;;;;;;;10.32;1.60;;;20.30;99.90;;;;;;4840803;29;20022;-37
2022/08/03 03:05:08;;;;;;;9.45;1.50;;;20.30;99.90;;;;;;4845145;29;20120;-37
2022/08/03 03:07:35;;;;;;;5.15;1.80;;;20.30;99.90;;;;;;4839190;29;20375;-36
2022/08/03 03:10:03;;;;;;;1.75;1.10;;;20.30;99.90;;;;;;4840880;29;20098;-37
2022/08/03 03:12:29;;;;;;;;;;;20.20;99.90;;;;;;4837765;29;20037;-34
2022/08/03 03:14:55;;;;;;;10.88;3.53;;;20.20;99.90;;;;;;4841480;29;19916;-38
2022/08/03 03:17:22;;;;;;;5.18;1.80;;;20.30;99.90;;;;;;4831355;29;20422;-39
2022/08/03 03:19:49;;;;;;;6.57;1.77;;;20.20;99.90;;;;;;4843253;29;20554;-33
2022/08/03 03:22:16;;;;;;;18.52;2.15;;;20.30;99.90;;;;;;4842900;29;20478;-38
2022/08/03 03:24:43;;;;;;;7.07;1.88;;;20.20;99.90;;;;;;4829674;29;20503;-33
2022/08/03 03:27:09;;;;;;;11.53;1.90;;;20.20;99.90;;;;;;4834889;29;20471;-36
2022/08/03 03:29:35;;;;;;;5.55;2.10;;;20.20;99.90;;;;;;4820793;29;20514;-36
2022/08/03 03:32:01;;;;;;;9.48;1.80;;;20.20;99.90;;;;;;4835485;29;20057;-33
2022/08/03 03:34:28;;;;;;;7.28;1.75;;;20.20;99.90;;;;;;4837140;29;20064;-37
2022/08/03 03:36:54;;;;;;;;;;;20.10;99.90;;;;;;4814152;29;20073;-39
2022/08/03 03:39:20;;;;;;;9.98;2.42;;;20.20;99.90;;;;;;4831194;29;19966;-35
2022/08/03 03:41:45;;;;;;;5.10;2.22;;;20.10;99.90;;;;;;4841464;29;20479;-37
2022/08/03 03:44:11;;;;;;;9.15;2.05;;;20.10;99.90;;;;;;4847902;29;20052;-39
2022/08/03 03:46:38;;;;;;;7.05;1.70;;;20.10;99.90;;;;;;4842703;29;20034;-35
2022/08/03 03:49:07;;;;;;;5.90;1.77;;;20.10;99.90;;;;;;4832705;29;20598;-39
2022/08/03 03:51:33;;;;;;;4.35;1.65;;;20.10;99.90;;;;;;4834907;29;20498;-37
2022/08/03 03:54:01;;;;;;;8.68;1.80;;;20.00;99.90;;;;;;4845555;29;20540;-31
2022/08/03 03:56:27;;;;;;;10.98;1.83;;;20.00;99.90;;;;;;4831091;29;20037;-39
2022/08/03 03:58:53;;;;;;;8.82;1.88;;;20.00;99.90;;;;;;4838862;29;20033;-35
2022/08/03 04:01:19;;;;;;;9.93;1.83;;;20.00;99.90;;;;;;4836465;29;20386;-34
2022/08/03 04:03:45;;;;;;;5.70;2.08;;;20.00;99.90;;;;;;4838865;29;20029;-40
2022/08/03 04:11:47;;;;;;;3.03;1.40;;;19.90;99.90;;;;;;4833466;29;20099;-41
2022/08/03 04:14:24;;;;;;;9.63;2.25;;;20.00;99.90;;;;;;4835572;29;20084;-33
2022/08/03 04:16:55;;;;;;;6.75;1.80;;;19.90;99.90;;;;;;4830370;29;20109;-36
2022/08/03 04:19:28;;;;;;;2.83;1.48;;;20.00;99.90;;;;;;4843835;29;20064;-35
2022/08/03 04:21:59;;;;;;;4.60;1.85;;;19.90;99.90;;;;;;4835716;29;20049;-35
2022/08/03 04:24:37;;;;;;;8.90;2.53;;;19.90;99.90;;;;;;4843375;29;20473;-39
2022/08/03 04:27:08;;;;;;;5.88;1.50;;;20.00;99.90;;;;;;4840442;29;20034;-35
2022/08/03 04:29:36;;;;;;;7.10;1.90;;;19.90;99.90;;;;;;4837500;29;20119;-36
2022/08/03 04:32:04;;;;;;;14.98;2.42;;;19.90;99.90;;;;;;4839764;29;20045;-37
2022/08/03 04:34:30;;;;;;;7.90;1.45;;;19.90;99.90;;;;;;4848606;29;20041;-39
2022/08/03 04:36:59;;;;;;;8.48;2.03;;;19.90;99.90;;;;;;4830262;29;20526;-38
2022/08/03 04:39:26;;;;;;;7.90;2.25;;;20.00;99.90;;;;;;4838252;29;20044;-37
2022/08/03 04:41:56;;;;;;;7.45;1.77;;;19.90;99.90;;;;;;4837469;29;20351;-46
2022/08/03 04:44:24;;;;;;;10.32;2.28;;;19.90;99.90;;;;;;4842213;29;20044;-34
2022/08/03 04:46:51;;;;;;;7.88;2.65;;;19.90;99.90;;;;;;4831812;29;20398;-35
2022/08/03 04:49:18;;;;;;;9.43;2.20;;;19.90;99.90;;;;;;4833918;29;20050;-39
2022/08/03 04:51:45;;;;;;;6.32;1.35;;;19.90;99.90;;;;;;4837218;29;20034;-39
2022/08/03 04:54:14;;;;;;;9.45;2.67;;;19.90;99.90;;;;;;4835888;29;20030;-35
2022/08/03 04:56:41;;;;;;;6.25;1.67;;;19.90;99.90;;;;;;4815064;29;20038;-35
2022/08/03 04:59:07;;;;;;;15.55;2.63;;;19.90;99.90;;;;;;4837288;29;20085;-36
2022/08/03 05:01:33;;;;;;;8.98;1.88;;;19.90;99.90;;;;;;4835156;29;21481;-46
2022/08/03 05:03:59;;;;;;;7.85;2.83;;;19.90;99.90;;;;;;4838904;29;20038;-34
2022/08/03 05:06:24;;;;;;;12.60;2.53;;;19.90;99.90;;;;;;4838069;29;20034;-37
2022/08/03 05:08:50;;;;;;;5.47;1.90;;;19.90;99.90;;;;;;4836715;29;20033;-38
2022/08/03 05:11:16;;;;;;;12.70;2.55;;;19.90;99.90;;;;;;4836043;29;20223;-39
2022/08/03 05:13:46;;;;;;;9.30;2.05;;;19.90;99.90;;;;;;4833548;29;20065;-35
2022/08/03 05:16:12;;;;;;;13.77;3.03;;;19.90;99.90;;;;;;4819943;29;20098;-34
2022/08/03 05:18:39;;;;;;;16.17;3.13;;;19.90;99.90;;;;;;4832178;29;20113;-36
2022/08/03 05:21:05;;;;;;;17.73;2.17;;;19.90;99.90;;;;;;4837431;29;20460;-35
2022/08/03 05:23:30;;;;;;;9.25;3.05;;;19.90;99.90;;;;;;4823719;29;20085;-33
2022/08/03 05:25:56;;;;;;;11.52;1.75;;;19.90;99.90;;;;;;4837626;29;20034;-33
2022/08/03 05:28:22;;;;;;;6.70;1.63;;;19.90;99.90;;;;;;4833502;29;20113;-38
2022/08/03 05:30:47;;;;;;;5.35;2.00;;;20.00;99.90;;;;;;4835969;29;20574;-35
2022/08/03 05:33:13;;;;;;;15.27;2.58;;;20.00;99.90;;;;;;4836331;29;20030;-32
2022/08/03 05:35:39;;;;;;;17.65;2.92;;;20.00;99.90;;;;;;4838397;29;20040;-39
2022/08/03 05:38:05;;;;;;;10.80;2.00;;;20.00;99.90;;;;;;4835431;29;20454;-32
2022/08/03 05:40:30;;;;;;;6.88;2.55;;;20.00;99.90;;;;;;4847253;29;20049;-31
2022/08/03 05:42:57;;;;;;;6.20;1.60;;;20.10;99.90;;;;;;4850119;29;20760;-37
2022/08/03 05:45:23;;;;;;;6.95;2.15;;;20.20;99.90;;;;;;4854965;29;20690;-35
2022/08/03 05:47:49;;;;;;;8.13;2.08;;;20.20;99.90;;;;;;4847932;29;20049;-31
2022/08/03 05:50:16;;;;;;;8.90;1.85;;;20.20;99.90;;;;;;4861532;29;20064;-36
2022/08/03 05:52:42;;;;;;;11.85;2.28;;;20.30;99.90;;;;;;4841010;29;20034;-40
2022/08/03 05:55:09;;;;;;;4.95;2.15;;;20.40;99.90;;;;;;4833842;29;20081;-40
2022/08/03 05:57:35;;;;;;;10.75;2.33;;;20.40;99.90;;;;;;4831854;29;20030;-36
2022/08/03 06:00:04;;;;;;;10.98;2.55;;;20.50;99.90;;;;;;4832350;29;20083;-34
2022/08/03 06:02:29;;;;;;;8.93;1.83;;;20.60;99.90;;;;;;4830980;29;20057;-36
2022/08/03 06:04:55;;;;;;;10.00;2.38;;;20.60;99.90;;;;;;4833765;29;20025;-31
2022/08/03 06:07:21;;;;;;;6.30;2.65;;;20.70;99.90;;;;;;4835350;29;20547;-39
2022/08/03 06:09:46;;;;;;;10.63;2.38;;;20.80;99.90;;;;;;4831513;29;20137;-33
2022/08/03 06:12:12;;;;;;;9.73;1.85;;;20.80;99.90;;;;;;4831053;29;20643;-44
2022/08/03 06:14:38;;;;;;;7.63;1.98;;;20.90;99.90;;;;;;4845425;29;20452;-37
2022/08/03 06:17:03;;;;;;;11.52;2.25;;;21.00;99.90;;;;;;4820085;29;20057;-36
2022/08/03 06:19:29;;;;;;;9.55;2.33;;;21.00;99.90;;;;;;4842853;29;20105;-35
2022/08/03 06:21:54;;;;;;;9.60;2.35;;;21.10;99.90;;;;;;4846700;29;20086;-35
2022/08/03 06:24:20;;;;;;;9.10;2.22;;;21.20;99.90;;;;;;4818719;29;20032;-30
2022/08/03 06:26:46;;;;;;;10.88;3.30;;;21.30;99.90;;;;;;4837331;29;20044;-40
2022/08/03 06:29:11;;;;;;;11.98;3.22;;;21.50;99.90;;;;;;4836090;29;20494;-40
2022/08/03 06:31:37;;;;;;;6.10;2.40;;;21.70;99.90;;;;;;4833177;29;20043;-37
2022/08/03 06:34:04;;;;;;;19.27;3.13;;;22.10;99.90;;;;;;4830231;29;20521;-35
2022/08/03 06:36:30;;;;;;;3.85;1.90;;;22.80;99.90;;;;;;4835783;29;20518;-37
2022/08/03 06:38:57;;;;;;;10.60;2.25;;;24.10;99.90;;;;;;4843202;29;20086;-39
2022/08/03 06:41:23;;;;;;;6.82;2.35;;;25.10;99.90;;;;;;4832175;29;20025;-40
2022/08/03 06:43:49;;;;;;;10.98;3.20;;;25.80;99.90;;;;;;4839925;29;20468;-33
2022/08/03 06:46:15;;;;;;;5.07;2.72;;;26.50;99.90;;;;;;4850481;29;20046;-45
2022/08/03 06:48:40;;;;;;;9.45;2.45;;;26.80;99.90;;;;;;4840739;29;20521;-45
2022/08/03 06:51:06;;;;;;;7.22;2.13;;;26.50;99.90;;;;;;4837772;29;20446;-36
2022/08/03 06:53:32;;;;;;;11.93;3.08;;;26.20;99.90;;;;;;4832570;29;20061;-39
2022/08/03 06:55:57;;;;;;;9.68;2.50;;;26.20;99.90;;;;;;4843636;29;20418;-35
2022/08/03 06:58:23;;;;;;;13.23;2.38;;;26.20;99.90;;;;;;4844453;29;20086;-40
2022/08/03 07:00:49;;;;;;;10.52;2.45;;;26.10;99.90;;;;;;4838189;29;20103;-40
2022/08/03 07:03:14;;;;;;;4.85;1.85;;;26.20;99.90;;;;;;4832480;29;20444;-39
2022/08/03 07:05:42;;;;;;;8.85;1.92;;;26.30;99.90;;;;;;4843651;29;20017;-39
2022/08/03 07:08:08;;;;;;;9.13;2.42;;;26.20;99.90;;;;;;4818547;29;20034;-32
2022/08/03 07:10:33;;;;;;;12.80;2.38;;;26.00;99.90;;;;;;4819828;29;20570;-35
2022/08/03 07:12:59;;;;;;;11.00;1.95;;;25.70;99.90;;;;;;4824621;29;20103;-36
2022/08/03 07:15:25;;;;;;;9.63;2.70;;;25.30;99.90;;;;;;4828901;29;20046;-37
2022/08/03 07:17:50;;;;;;;7.22;1.90;;;25.20;99.90;;;;;;4823603;29;20435;-38
2022/08/03 07:20:17;;;;;;;10.70;2.28;;;25.40;99.90;;;;;;4828796;29;20622;-39
2022/08/03 07:22:43;;;;;;;7.35;2.03;;;25.60;99.90;;;;;;4815362;29;20082;-34
2022/08/03 07:25:09;;;;;;;8.17;2.20;;;25.80;99.90;;;;;;4829949;29;20059;-39
2022/08/03 07:27:35;;;;;;;11.95;2.22;;;25.80;99.90;;;;;;4829328;29;20033;-41
2022/08/03 07:30:04;;;;;;;6.35;3.17;;;25.60;99.90;;;;;;4832020;29;20807;-44
2022/08/03 07:32:30;;;;;;;7.88;1.70;;;25.30;99.90;;;;;;4829375;29;20486;-38
2022/08/03 07:34:55;;;;;;;16.77;2.40;;;25.00;99.90;;;;;;4822208;29;20036;-41
2022/08/03 07:37:21;;;;;;;8.15;2.30;;;24.70;99.90;;;;;;4836284;29;20103;-39
2022/08/03 07:39:47;;;;;;;16.42;2.30;;;24.50;99.90;;;;;;4842469;29;20037;-39
2022/08/03 07:42:13;;;;;;;12.25;2.53;;;24.50;99.90;;;;;;4828402;29;20088;-39
2022/08/03 07:44:38;;;;;;;10.90;2.65;;;24.50;99.90;;;;;;4822162;29;20526;-34
2022/08/03 07:47:04;;;;;;;12.98;2.38;;;24.50;99.90;;;;;;4836428;29;20579;-35
2022/08/03 07:49:30;;;;;;;11.18;2.30;;;24.50;99.90;;;;;;4842185;29;20441;-38
2022/08/03 07:54:40;;;;;;;8.90;2.65;;;24.80;99.90;;;;;;4835387;29;20085;-34
2022/08/03 07:57:05;;;;;;;7.85;2.53;;;25.00;99.90;;;;;;4843364;29;20037;-35
2022/08/03 07:59:31;;;;;;;10.45;1.90;;;25.10;99.90;;;;;;4837197;29;20510;-34
2022/08/03 08:01:57;;;;;;;13.27;2.15;;;25.20;99.90;;;;;;4842543;29;20026;-37
2022/08/03 08:04:22;;;;;;;9.55;2.55;;;25.30;99.90;;;;;;4836732;29;20025;-41
2022/08/03 08:06:48;;;;;;;6.15;1.85;;;25.50;99.90;;;;;;4831752;29;21775;-40
2022/08/03 08:09:14;;;;;;;6.75;2.03;;;25.60;99.90;;;;;;4831614;29;20691;-39
2022/08/03 08:11:39;;;;;;;11.68;2.38;;;25.70;99.90;;;;;;4835467;29;20386;-39
2022/08/03 08:14:06;;;;;;;13.20;2.53;;;25.90;99.90;;;;;;4828192;29;20064;-37
2022/08/03 08:16:31;;;;;;;6.43;2.25;;;26.00;99.90;;;;;;4832617;29;21580;-43
2022/08/03 08:18:57;;;;;;;12.70;1.92;;;26.10;99.90;;;;;;4828052;29;20582;-39
2022/08/03 08:21:23;;;;;;;9.32;2.42;;;26.20;99.90;;;;;;4825515;29;20554;-37
2022/08/03 08:23:48;;;;;;;12.55;2.38;;;26.30;99.90;;;;;;4829586;29;20501;-40
2022/08/03 08:26:14;;;;;;;11.25;2.15;;;26.30;99.90;;;;;;4832795;29;20034;-40
2022/08/03 08:28:40;;;;;;;10.57;2.28;;;26.30;99.90;;;;;;4828594;29;20502;-40
2022/08/03 08:31:06;;;;;;;8.15;2.65;;;26.50;99.90;;;;;;4830324;29;20652;-39
2022/08/03 08:33:33;;;;;;;8.10;2.05;;;26.70;99.90;;;;;;4831306;29;20041;-40
2022/08/03 08:35:59;;;;;;;10.52;3.17;;;26.90;99.90;;;;;;4829445;29;20085;-37
2022/08/03 08:38:25;;;;;;;13.82;2.83;;;27.10;99.90;;;;;;4825404;29;20064;-43
2022/08/03 08:40:53;;;;;;;10.10;2.63;;;27.20;99.90;;;;;;4827274;29;20022;-37
2022/08/03 08:43:19;;;;;;;7.07;3.03;;;27.40;99.90;;;;;;4831378;29;20185;-40
2022/08/03 08:45:50;;;;;;;14.50;3.80;;;27.60;99.90;;;;;;4811238;29;20566;-40
2022/08/03 08:48:25;;;;;;;8.18;2.95;;;27.80;99.90;;;;;;4826203;29;20479;-33
2022/08/03 08:50:55;;;;;;;11.07;3.15;;;28.10;99.90;;;;;;4825150;29;20437;-36
2022/08/03 08:53:24;;;;;;;14.73;3.20;;;28.40;99.90;;;;;;4829094;29;20538;-37
2022/08/03 08:55:50;;;;;;;10.07;3.17;;;28.50;99.90;;;;;;4834216;29;20044;-41
2022/08/03 08:58:15;;;;;;;15.70;4.10;;;28.60;99.90;;;;;;4825134;29;20581;-36
2022/08/03 09:00:44;;;;;;;16.75;3.55;;;28.70;99.90;;;;;;4818094;29;20841;-42
2022/08/03 09:03:11;;;;;;;10.57;2.92;;;28.70;99.90;;;;;;4830910;29;20041;-40
2022/08/03 09:05:37;;;;;;;12.25;3.60;;;28.60;99.90;;;;;;4830322;29;20033;-39
2022/08/03 09:08:05;;;;;;;7.15;2.90;;;28.70;99.90;;;;;;4831810;29;20491;-41
2022/08/03 09:10:30;;;;;;;15.05;4.72;;;28.80;99.90;;;;;;4811459;29;20450;-40
2022/08/03 09:12:56;;;;;;;15.67;3.37;;;29.00;99.90;;;;;;4827040;29;20335;-41
2022/08/03 09:15:27;;;;;;;14.27;3.10;;;29.20;99.90;;;;;;4834391;29;20026;-35
2022/08/03 09:17:55;;;;;;;10.30;3.67;;;29.50;99.90;;;;;;4833540;29;20083;-40
2022/08/03 09:20:22;;;;;;;12.15;2.72;;;29.50;99.90;;;;;;4833277;29;20551;-41
2022/08/03 09:23:07;;;;;;;8.57;4.07;;;29.60;99.90;;;;;;4830867;29;20038;-41
2022/08/03 09:25:35;;;;;;;6.28;3.17;;;30.10;99.90;;;;;;4819198;29;20114;-41
2022/08/03 09:28:05;;;;;;;9.73;2.60;;;30.50;99.70;;;;;;4841970;29;20915;-40
2022/08/03 09:30:31;;;;;;;13.40;3.70;;;30.80;99.70;;;;;;4833446;29;20483;-40
2022/08/03 09:33:02;;;;;;;15.40;3.10;;;31.30;99.00;;;;;;4828783;29;20117;-43
2022/08/03 09:35:28;;;;;;;11.70;3.85;;;31.50;98.30;;;;;;4840413;29;20503;-39
2022/08/03 09:38:18;;;;;;;13.93;2.67;;;31.90;98.40;;;;;;4842900;29;20041;-36
2022/08/03 09:40:45;;;;;;;7.82;2.20;;;32.30;97.80;;;;;;4830570;29;20037;-37
2022/08/03 09:43:11;;;;;;;12.70;3.78;;;32.50;96.90;;;;;;4831551;29;20503;-38
2022/08/03 09:45:38;;;;;;;13.95;2.85;;;32.70;96.70;;;;;;4831676;29;20483;-38
2022/08/03 09:48:28;;;;;;;12.82;2.88;;;32.90;96.60;;;;;;4830676;29;20617;-36
2022/08/03 09:50:57;;;;;;;18.13;3.38;;;32.90;96.70;;;;;;4828730;29;20365;-37
2022/08/03 09:53:23;;;;;;;7.10;2.08;;;32.70;96.50;;;;;;4826180;29;20586;-35
2022/08/03 09:55:58;;;;;;;;;;;32.60;96.80;;;;;;4835184;29;20034;-36
2022/08/03 09:58:26;;;;;;;13.35;2.72;;;32.40;96.80;;;;;;4833899;29;20037;-33
2022/08/03 10:00:58;;;;;;;8.10;2.15;;;32.30;96.90;;;;;;4840743;29;20078;-35
2022/08/03 10:03:25;;;;;;;12.48;2.95;;;32.10;96.90;;;;;;4845902;29;20159;-38
2022/08/03 10:05:51;;;;;;;12.52;4.22;;;32.00;97.00;;;;;;4849053;29;20557;-36
2022/08/03 10:08:19;;;;;;;21.17;3.58;;;31.90;97.10;;;;;;4845143;29;20502;-36
2022/08/03 10:10:46;;;;;;;12.48;3.38;;;31.70;97.20;;;;;;4849231;29;20034;-39
2022/08/03 10:13:14;;;;;;;15.45;2.33;;;31.70;97.30;;;;;;4847256;29;20716;-41
2022/08/03 10:15:40;;;;;;;16.60;2.35;;;31.60;97.50;;;;;;4839990;29;20034;-42
2022/08/03 10:18:06;;;;;;;7.97;2.17;;;31.70;97.30;;;;;;4848129;29;20069;-35
2022/08/03 10:20:36;;;;;;;12.88;2.60;;;31.80;96.80;;;;;;4848962;29;20479;-36
2022/08/03 10:23:03;;;;;;;10.75;2.80;;;32.00;96.60;;;;;;4846558;29;20534;-39
2022/08/03 10:25:30;;;;;;;10.32;2.08;;;31.90;96.90;;;;;;4849402;29;20033;-37
2022/08/03 10:27:57;;;;;;;12.65;2.60;;;31.90;97.10;;;;;;4842164;29;20037;-40
2022/08/03 10:30:26;;;;;;;8.90;2.35;;;31.70;96.80;;;;;;4838802;29;20474;-39
2022/08/03 10:35:47;;;;;;;6.55;2.55;;;32.00;96.20;;;;;;4843867;29;20137;-38
2022/08/03 10:38:20;;;;;;;7.18;1.90;;;31.80;96.70;;;;;;4841961;29;20034;-40
2022/08/03 10:40:49;;;;;;;8.93;2.03;;;32.00;96.20;;;;;;4835918;29;20502;-36
2022/08/03 10:43:26;;;;;;;7.88;2.05;;;32.20;96.00;;;;;;4839901;29;20038;-50
2022/08/03 10:45:52;;;;;;;9.65;2.40;;;32.20;96.20;;;;;;4825292;29;20088;-37
2022/08/03 10:48:19;;;;;;;6.80;1.85;;;32.20;96.20;;;;;;4839855;29;20119;-39
2022/08/03 10:50:47;;;;;;;11.95;2.13;;;32.10;96.00;;;;;;4842200;29;20038;-38
2022/08/03 10:53:12;;;;;;;3.58;1.58;;;31.90;95.90;;;;;;4831803;29;20045;-39
2022/08/03 10:58:37;;;;;;;10.30;2.13;;;31.50;96.20;;;;;;4837070;29;20049;-39
2022/08/03 11:01:07;;;;;;;11.02;2.22;;;31.10;96.70;;;;;;4844683;29;20509;-39
2022/08/03 11:03:54;;;;;;;8.85;1.80;;;30.90;97.10;;;;;;4845534;29;20470;-39
2022/08/03 11:06:21;;;;;;;10.20;1.95;;;30.80;97.30;;;;;;4838806;29;20252;-42
2022/08/03 11:08:49;;;;;;;9.70;2.25;;;30.90;96.70;;;;;;4844061;29;20090;-38
2022/08/03 11:11:17;;;;;;;9.13;2.25;;;30.90;96.50;;;;;;4844206;29;20049;-38
2022/08/03 11:14:03;;;;;;;11.13;1.77;;;30.90;96.10;;;;;;4843742;29;20507;-35
2022/08/03 11:16:34;;;;;;;14.40;1.57;;;30.70;96.30;;;;;;4849563;29;20030;-39
2022/08/03 11:19:03;;;;;;;3.65;1.85;;;30.50;96.00;;;;;;4848049;29;20037;-38
2022/08/03 11:21:50;;;;;;;12.48;1.60;;;30.30;96.70;;;;;;4860629;29;20018;-39
2022/08/03 11:24:50;;;;;;;9.98;2.63;;;30.40;96.80;;;;;;4859292;29;20086;-37
2022/08/03 11:27:22;;;;;;;9.68;1.65;;;30.30;97.10;;;;;;4832706;29;20499;-39
2022/08/03 11:29:56;;;;;;;12.75;2.03;;;30.40;96.20;;;;;;4844222;29;20045;-39
2022/08/03 11:32:38;;;;;;;3.40;2.10;;;30.50;96.40;;;;;;4842980;29;20519;-37
2022/08/03 11:35:18;;;;;;;2.95;1.90;;;30.50;96.60;;;;;;4841336;29;20176;-33
2022/08/03 11:37:53;;;;;;;8.18;2.20;;;30.50;96.90;;;;;;4843320;29;20469;-33
2022/08/03 11:40:46;;;;;;;8.25;1.58;;;30.40;97.10;;;;;;4855073;29;20096;-37
2022/08/03 11:43:29;;;;;;;10.05;2.10;;;30.50;96.80;;;;;;4850755;29;20849;-39
2022/08/03 11:45:57;;;;;;;3.33;1.67;;;30.60;96.50;;;;;;4850840;29;20038;-38
2022/08/03 11:48:27;;;;;;;9.38;1.92;;;30.50;96.40;;;;;;4848808;29;20061;-39
2022/08/03 11:50:52;;;;;;;4.03;1.60;;;30.60;95.60;;;;;;4847567;29;20064;-37
2022/08/03 11:53:19;;;;;;;11.68;3.63;;;30.70;95.50;;;;;;4844764;29;20482;-38
2022/08/03 11:55:47;;;;;;;8.07;1.70;;;30.50;95.80;;;;;;4845308;29;20044;-34
2022/08/03 11:58:22;;;;;;;8.93;1.95;;;30.70;95.70;;;;;;4849013;29;20534;-41
2022/08/03 12:00:49;;;;;;;10.45;2.30;;;30.80;95.80;;;;;;4847954;29;20033;-35
2022/08/03 12:03:35;;;;;;;9.38;1.80;;;31.00;95.50;;;;;;4843755;29;20033;-39
2022/08/03 12:06:01;;;;;;;8.70;2.03;;;31.10;95.50;;;;;;4846970;29;20094;-40
2022/08/03 12:08:27;;;;;;;10.40;2.25;;;31.20;95.10;;;;;;4846750;29;20454;-34
2022/08/03 12:10:56;;;;;;;10.88;2.15;;;31.20;95.10;;;;;;4846798;29;20029;-35
2022/08/03 12:13:22;;;;;;;4.35;1.90;;;31.20;94.30;;;;;;4847571;29;20026;-39
2022/08/03 12:15:53;;;;;;;5.73;2.03;;;31.30;94.50;;;;;;4843358;29;20129;-36
2022/08/03 12:18:20;;;;;;;7.45;1.90;;;31.30;94.50;;;;;;4842791;29;20345;-36
2022/08/03 12:20:48;;;;;;;5.85;1.80;;;31.40;94.70;;;;;;4843134;29;20109;-50
2022/08/03 12:23:14;;;;;;;6.63;1.70;;;31.50;95.00;;;;;;4838611;29;20029;-36
2022/08/03 12:25:42;;;;;;;4.72;2.45;;;31.70;94.20;;;;;;4838116;29;20074;-36
2022/08/03 12:28:08;;;;;;;7.35;2.08;;;31.70;94.40;;;;;;4826810;29;20495;-38
2022/08/03 12:30:34;;;;;;;12.32;2.20;;;31.70;94.40;;;;;;4857372;29;20045;-36
2022/08/03 12:33:30;;;;;;;12.73;2.45;;;31.80;94.60;;;;;;4840771;29;20030;-34
2022/08/03 12:36:04;;;;;;;;;;;31.70;94.70;;;;;;4839748;29;20046;-36
2022/08/03 12:38:35;;;;;;;11.75;3.40;;;31.70;94.70;;;;;;4837053;29;19935;-34
2022/08/03 12:41:07;;;;;;;6.90;2.40;;;31.70;95.20;;;;;;4843507;29;20498;-41
2022/08/03 12:43:34;;;;;;;7.63;2.90;;;31.70;95.20;;;;;;4837385;29;20103;-38
2022/08/03 12:46:07;;;;;;;8.10;2.38;;;31.90;94.90;;;;;;4839804;29;20049;-38
2022/08/03 12:48:33;;;;;;;6.90;2.58;;;31.90;95.00;;;;;;4821619;29;20045;-35
2022/08/03 12:51:11;;;;;;;12.10;2.13;;;31.70;95.40;;;;;;4843111;29;20495;-36
2022/08/03 12:53:36;;;;;;;4.85;2.05;;;31.50;95.60;;;;;;4839841;29;20494;-35
2022/08/03 12:56:04;;;;;;;3.25;1.98;;;31.40;95.90;;;;;;4844030;29;20497;-31
2022/08/03 12:58:34;;;;;;;10.02;1.73;;;31.30;95.90;;;;;;4844157;29;20490;-36
2022/08/03 13:01:04;;;;;;;8.55;2.97;;;31.50;96.00;;;;;;4837580;29;20482;-35
2022/08/03 13:03:41;;;;;;;7.72;2.92;;;31.70;95.70;;;;;;4819558;29;20033;-36
2022/08/03 13:06:15;;;;;;;7.63;2.47;;;31.70;95.80;;;;;;4843449;29;20439;-38
2022/08/03 13:08:41;;;;;;;7.20;2.15;;;31.70;95.60;;;;;;4845000;29;20550;-34